Terminal Aerodrome Forecast
Issued by NWS

Home | Current Version | Previous Version | Text Only | Print | Product List | Glossary On
Versions: 1 2 3 4 5 6 7 8 9 10 11 12 13 14 15 16 17 18 19 20 21 22 23 24 25 26 27 28 29 30 31 32 33 34 35 36 37 38 39 40 41
481
FTUS46 KLOX 231747
TAFBUR
TAF
KBUR 231747Z 2318/2418 06003KT P6SM -SHRA VCTS BKN035CB
     FM232000 23008KT P6SM -SHRA VCTS BKN035CB
     FM240000 28010KT P6SM -SHRA BKN035
     FM240300 VRB05KT P6SM VCSH BKN050
     FM240900 VRB03KT P6SM BKN100=

USA.gov is the U.S. government's official web portal to all federal, state and local government web resources and services.